Hlavní strana
METAR-TAF:

METAR-TAF

Letiště :

Elista, Rusko

zeměpisná šířka: 46-22N, zeměpisná délka: 044-20E, výška: 150 m

Aktuální stav počasí

Zpráva byla vytvořena před 39 minutami, v 04:00 UTC
Východojihovýchodní vítr 6 kt
Teplota 0°C
Vlhkost vzduchu 93%
Tlak 1031 hPa
Viditelnost: 6000 m

METAR: URWI 180400Z AUTO 12003MPS 6000 // ///017/// M00/M01 Q1031

Čas: 08:39 (04:39 UTC)

Předpověď počasí

Zpráva byla vytvořena před 2 hodinami a 39 minutami, v 02:00 UTC
Předpověď platná od 18 v 03 UTC do 18 v 12 UTC
Východojihovýchodní vítr 12 kt s nárazy do 23 kt
Viditelnost: 3100 m
Oblačno až skoro zataženo ve výšce 1100 ft
kouřmo
Dočasný
od 18 v 03 UTC do 18 v 09 UTC
Východní vítr 6 kt s nárazy do 16 kt
Viditelnost: 0500 m
Oblačno až skoro zataženo ve výšce 200 ft
mlha
Dočasný
od 18 v 09 UTC do 18 v 12 UTC
Jihovýchodní vítr 6 kt s nárazy do 16 kt

TAF: URWI 180200Z 1803/1812 12006G12MPS 3100 BR BKN011 TEMPO 1803/1809 10003G08MPS 0500 FG BKN002 TEMPO 1809/1812 14003G08MPS

Stav a předpovědi počasí z více než 4 000 letišť (zprávy METAR a TAF).

Červené a žluté tečky na mapě představují dostupné meteorologické stanice.

Když kurzor umístíte na tečku, zobrazí se název stanice.

Pak kliknutím zobrazíte stav a předpověď počasí.

Chcete-li změnit mapu, kliknutím na zelené tlačítko se znaménkem +mapu přiblížíte, kliknutím na zelené tlačítko se znaménkem – mapu oddálíte a kliknutím na zelené šipky přejdete na sousední mapy.


METAR-TAF: